sensor_id;sensor_type;location;lat;lon;timestamp;P1;durP1;ratioP1;P2;durP2;ratioP2
43042;SDS011;28667;50.758;6.096;2023-02-05T00:02:14;20.67;;;8.57;;
43042;SDS011;28667;50.758;6.096;2023-02-05T00:04:40;19.95;;;9.00;;
43042;SDS011;28667;50.758;6.096;2023-02-05T00:07:05;17.80;;;8.55;;
43042;SDS011;28667;50.758;6.096;2023-02-05T00:09:31;27.48;;;9.18;;
43042;SDS011;28667;50.758;6.096;2023-02-05T00:11:57;17.23;;;8.23;;
43042;SDS011;28667;50.758;6.096;2023-02-05T00:14:24;21.48;;;8.52;;
43042;SDS011;28667;50.758;6.096;2023-02-05T00:16:50;19.15;;;7.70;;
43042;SDS011;28667;50.758;6.096;2023-02-05T00:19:17;20.63;;;9.25;;
43042;SDS011;28667;50.758;6.096;2023-02-05T00:21:43;26.83;;;9.02;;
43042;SDS011;28667;50.758;6.096;2023-02-05T00:24:09;20.73;;;7.63;;
43042;SDS011;28667;50.758;6.096;2023-02-05T00:26:35;19.45;;;7.30;;
43042;SDS011;28667;50.758;6.096;2023-02-05T00:29:01;16.08;;;7.57;;
43042;SDS011;28667;50.758;6.096;2023-02-05T00:31:27;18.77;;;8.98;;
43042;SDS011;28667;50.758;6.096;2023-02-05T00:33:53;21.98;;;7.55;;
43042;SDS011;28667;50.758;6.096;2023-02-05T00:36:19;18.63;;;7.45;;
43042;SDS011;28667;50.758;6.096;2023-02-05T00:38:46;16.20;;;7.30;;
43042;SDS011;28667;50.758;6.096;2023-02-05T00:41:12;21.80;;;8.20;;
43042;SDS011;28667;50.758;6.096;2023-02-05T00:43:39;17.25;;;6.78;;
43042;SDS011;28667;50.758;6.096;2023-02-05T00:46:06;18.65;;;7.72;;
43042;SDS011;28667;50.758;6.096;2023-02-05T00:48:32;16.58;;;6.53;;
43042;SDS011;28667;50.758;6.096;2023-02-05T00:50:57;23.65;;;7.55;;
43042;SDS011;28667;50.758;6.096;2023-02-05T00:53:23;16.98;;;7.13;;
43042;SDS011;28667;50.758;6.096;2023-02-05T00:55:49;15.82;;;6.90;;
43042;SDS011;28667;50.758;6.096;2023-02-05T00:58:16;15.52;;;6.55;;
43042;SDS011;28667;50.758;6.096;2023-02-05T01:00:42;17.58;;;6.53;;
43042;SDS011;28667;50.758;6.096;2023-02-05T01:03:08;11.77;;;5.25;;
43042;SDS011;28667;50.758;6.096;2023-02-05T01:05:34;14.35;;;5.80;;
43042;SDS011;28667;50.758;6.096;2023-02-05T01:08:01;12.70;;;5.70;;
43042;SDS011;28667;50.758;6.096;2023-02-05T01:10:28;9.50;;;5.18;;
43042;SDS011;28667;50.758;6.096;2023-02-05T01:12:54;12.57;;;5.10;;
43042;SDS011;28667;50.758;6.096;2023-02-05T01:15:19;10.98;;;4.90;;
43042;SDS011;28667;50.758;6.096;2023-02-05T01:17:45;14.35;;;5.05;;
43042;SDS011;28667;50.758;6.096;2023-02-05T01:20:12;5.82;;;3.83;;
43042;SDS011;28667;50.758;6.096;2023-02-05T01:22:39;21.70;;;5.47;;
43042;SDS011;28667;50.758;6.096;2023-02-05T01:25:06;9.65;;;4.35;;
43042;SDS011;28667;50.758;6.096;2023-02-05T01:27:32;10.05;;;5.45;;
43042;SDS011;28667;50.758;6.096;2023-02-05T01:29:58;6.63;;;4.53;;
43042;SDS011;28667;50.758;6.096;2023-02-05T01:32:25;7.47;;;4.40;;
43042;SDS011;28667;50.758;6.096;2023-02-05T01:34:52;10.73;;;5.05;;
43042;SDS011;28667;50.758;6.096;2023-02-05T01:37:18;11.95;;;4.07;;
43042;SDS011;28667;50.758;6.096;2023-02-05T01:39:44;10.55;;;5.03;;
43042;SDS011;28667;50.758;6.096;2023-02-05T01:42:14;10.57;;;3.90;;
43042;SDS011;28667;50.758;6.096;2023-02-05T01:44:41;11.00;;;4.93;;
43042;SDS011;28667;50.758;6.096;2023-02-05T01:47:07;9.75;;;5.25;;
43042;SDS011;28667;50.758;6.096;2023-02-05T01:49:34;12.23;;;5.65;;
43042;SDS011;28667;50.758;6.096;2023-02-05T01:52:08;13.05;;;5.57;;
43042;SDS011;28667;50.758;6.096;2023-02-05T01:54:39;12.23;;;5.35;;
43042;SDS011;28667;50.758;6.096;2023-02-05T01:57:16;14.18;;;6.90;;
43042;SDS011;28667;50.758;6.096;2023-02-05T01:59:45;14.43;;;5.50;;
43042;SDS011;28667;50.758;6.096;2023-02-05T02:02:13;16.20;;;7.25;;
43042;SDS011;28667;50.758;6.096;2023-02-05T02:07:08;16.02;;;6.40;;
43042;SDS011;28667;50.758;6.096;2023-02-05T02:09:37;11.75;;;6.05;;
43042;SDS011;28667;50.758;6.096;2023-02-05T02:12:05;16.25;;;7.15;;
43042;SDS011;28667;50.758;6.096;2023-02-05T02:14:37;18.33;;;9.00;;
43042;SDS011;28667;50.758;6.096;2023-02-05T02:17:06;17.80;;;7.35;;
43042;SDS011;28667;50.758;6.096;2023-02-05T02:20:20;28.20;;;10.65;;
43042;SDS011;28667;50.758;6.096;2023-02-05T02:22:28;27.95;;;10.27;;
43042;SDS011;28667;50.758;6.096;2023-02-05T02:25:32;28.35;;;11.50;;
43042;SDS011;28667;50.758;6.096;2023-02-05T02:28:25;29.52;;;10.63;;
43042;SDS011;28667;50.758;6.096;2023-02-05T02:31:15;28.10;;;10.60;;
43042;SDS011;28667;50.758;6.096;2023-02-05T02:36:47;34.13;;;12.65;;
43042;SDS011;28667;50.758;6.096;2023-02-05T02:39:22;38.28;;;13.68;;
43042;SDS011;28667;50.758;6.096;2023-02-05T02:42:21;31.25;;;11.15;;
43042;SDS011;28667;50.758;6.096;2023-02-05T02:44:59;42.17;;;14.00;;
43042;SDS011;28667;50.758;6.096;2023-02-05T02:47:31;41.17;;;15.27;;
43042;SDS011;28667;50.758;6.096;2023-02-05T02:50:05;38.28;;;14.07;;
43042;SDS011;28667;50.758;6.096;2023-02-05T02:52:37;39.10;;;13.93;;
43042;SDS011;28667;50.758;6.096;2023-02-05T02:55:06;38.78;;;13.70;;
43042;SDS011;28667;50.758;6.096;2023-02-05T02:57:40;38.55;;;14.00;;
43042;SDS011;28667;50.758;6.096;2023-02-05T03:00:09;37.28;;;14.20;;
43042;SDS011;28667;50.758;6.096;2023-02-05T03:02:39;42.88;;;15.25;;
43042;SDS011;28667;50.758;6.096;2023-02-05T03:05:08;35.17;;;13.70;;
43042;SDS011;28667;50.758;6.096;2023-02-05T03:07:42;39.00;;;13.40;;
43042;SDS011;28667;50.758;6.096;2023-02-05T03:10:17;39.88;;;13.38;;
43042;SDS011;28667;50.758;6.096;2023-02-05T03:15:37;32.35;;;11.75;;
43042;SDS011;28667;50.758;6.096;2023-02-05T03:18:06;47.25;;;15.50;;
43042;SDS011;28667;50.758;6.096;2023-02-05T03:20:34;39.75;;;13.73;;
43042;SDS011;28667;50.758;6.096;2023-02-05T03:23:05;42.20;;;14.85;;
43042;SDS011;28667;50.758;6.096;2023-02-05T03:25:31;43.03;;;14.20;;
43042;SDS011;28667;50.758;6.096;2023-02-05T03:27:59;42.28;;;14.35;;
43042;SDS011;28667;50.758;6.096;2023-02-05T03:30:30;32.13;;;11.75;;
43042;SDS011;28667;50.758;6.096;2023-02-05T03:33:17;32.83;;;13.48;;
43042;SDS011;28667;50.758;6.096;2023-02-05T03:35:59;36.80;;;12.00;;
43042;SDS011;28667;50.758;6.096;2023-02-05T03:41:37;37.53;;;13.25;;
43042;SDS011;28667;50.758;6.096;2023-02-05T03:47:04;41.60;;;15.70;;
43042;SDS011;28667;50.758;6.096;2023-02-05T03:49:58;38.50;;;14.93;;
43042;SDS011;28667;50.758;6.096;2023-02-05T03:52:35;42.88;;;14.80;;
43042;SDS011;28667;50.758;6.096;2023-02-05T03:57:58;36.13;;;11.68;;
43042;SDS011;28667;50.758;6.096;2023-02-05T04:00:28;30.33;;;11.80;;
43042;SDS011;28667;50.758;6.096;2023-02-05T04:02:56;29.55;;;10.98;;
43042;SDS011;28667;50.758;6.096;2023-02-05T04:05:27;37.83;;;13.57;;
43042;SDS011;28667;50.758;6.096;2023-02-05T04:07:54;31.80;;;11.18;;
43042;SDS011;28667;50.758;6.096;2023-02-05T04:10:24;37.03;;;13.35;;
43042;SDS011;28667;50.758;6.096;2023-02-05T04:12:50;41.35;;;15.48;;
43042;SDS011;28667;50.758;6.096;2023-02-05T04:15:17;35.90;;;13.43;;
43042;SDS011;28667;50.758;6.096;2023-02-05T04:17:46;36.03;;;13.65;;
43042;SDS011;28667;50.758;6.096;2023-02-05T04:20:12;36.70;;;13.45;;
43042;SDS011;28667;50.758;6.096;2023-02-05T04:22:38;40.80;;;14.95;;
43042;SDS011;28667;50.758;6.096;2023-02-05T04:25:04;40.85;;;13.73;;
43042;SDS011;28667;50.758;6.096;2023-02-05T04:27:31;41.08;;;16.02;;
43042;SDS011;28667;50.758;6.096;2023-02-05T04:30:00;47.40;;;14.05;;
43042;SDS011;28667;50.758;6.096;2023-02-05T04:32:26;37.88;;;14.23;;
43042;SDS011;28667;50.758;6.096;2023-02-05T04:34:52;37.30;;;13.93;;
43042;SDS011;28667;50.758;6.096;2023-02-05T04:37:18;42.55;;;15.55;;
43042;SDS011;28667;50.758;6.096;2023-02-05T04:39:44;42.40;;;15.82;;
43042;SDS011;28667;50.758;6.096;2023-02-05T04:42:11;42.58;;;15.98;;
43042;SDS011;28667;50.758;6.096;2023-02-05T04:44:37;43.30;;;15.52;;
43042;SDS011;28667;50.758;6.096;2023-02-05T04:47:02;48.95;;;16.88;;
43042;SDS011;28667;50.758;6.096;2023-02-05T04:49:30;48.10;;;15.68;;
43042;SDS011;28667;50.758;6.096;2023-02-05T04:51:56;44.80;;;16.55;;
43042;SDS011;28667;50.758;6.096;2023-02-05T04:54:22;37.28;;;14.13;;
43042;SDS011;28667;50.758;6.096;2023-02-05T04:56:47;29.95;;;12.93;;
43042;SDS011;28667;50.758;6.096;2023-02-05T04:59:13;35.63;;;12.93;;
43042;SDS011;28667;50.758;6.096;2023-02-05T05:01:39;36.05;;;12.32;;
43042;SDS011;28667;50.758;6.096;2023-02-05T05:04:05;36.83;;;13.40;;
43042;SDS011;28667;50.758;6.096;2023-02-05T05:06:30;34.80;;;15.10;;
43042;SDS011;28667;50.758;6.096;2023-02-05T05:08:57;33.88;;;13.50;;
43042;SDS011;28667;50.758;6.096;2023-02-05T05:11:22;38.05;;;13.50;;
43042;SDS011;28667;50.758;6.096;2023-02-05T05:13:48;34.00;;;14.35;;
43042;SDS011;28667;50.758;6.096;2023-02-05T05:16:15;34.22;;;13.02;;
43042;SDS011;28667;50.758;6.096;2023-02-05T05:18:42;34.65;;;15.00;;
43042;SDS011;28667;50.758;6.096;2023-02-05T05:21:08;32.97;;;14.85;;
43042;SDS011;28667;50.758;6.096;2023-02-05T05:23:34;35.22;;;13.52;;
43042;SDS011;28667;50.758;6.096;2023-02-05T05:26:05;36.25;;;13.85;;
43042;SDS011;28667;50.758;6.096;2023-02-05T05:28:31;32.33;;;12.73;;
43042;SDS011;28667;50.758;6.096;2023-02-05T05:30:59;31.55;;;12.63;;
43042;SDS011;28667;50.758;6.096;2023-02-05T05:33:31;29.20;;;11.90;;
43042;SDS011;28667;50.758;6.096;2023-02-05T05:35:57;28.95;;;12.48;;
43042;SDS011;28667;50.758;6.096;2023-02-05T05:38:22;24.73;;;12.10;;
43042;SDS011;28667;50.758;6.096;2023-02-05T05:40:48;26.45;;;11.93;;
43042;SDS011;28667;50.758;6.096;2023-02-05T05:43:32;29.23;;;13.07;;
43042;SDS011;28667;50.758;6.096;2023-02-05T05:46:17;29.23;;;13.10;;
43042;SDS011;28667;50.758;6.096;2023-02-05T05:48:57;33.83;;;13.48;;
43042;SDS011;28667;50.758;6.096;2023-02-05T05:51:24;36.70;;;13.88;;
43042;SDS011;28667;50.758;6.096;2023-02-05T05:53:51;29.65;;;12.75;;
43042;SDS011;28667;50.758;6.096;2023-02-05T05:56:18;34.00;;;14.18;;
43042;SDS011;28667;50.758;6.096;2023-02-05T05:58:44;29.98;;;12.85;;
43042;SDS011;28667;50.758;6.096;2023-02-05T06:01:11;33.88;;;14.75;;
43042;SDS011;28667;50.758;6.096;2023-02-05T06:03:38;35.42;;;13.48;;
43042;SDS011;28667;50.758;6.096;2023-02-05T06:06:05;32.85;;;14.60;;
43042;SDS011;28667;50.758;6.096;2023-02-05T06:08:32;34.67;;;12.98;;
43042;SDS011;28667;50.758;6.096;2023-02-05T06:10:59;33.42;;;12.52;;
43042;SDS011;28667;50.758;6.096;2023-02-05T06:13:25;32.20;;;13.02;;
43042;SDS011;28667;50.758;6.096;2023-02-05T06:15:51;27.10;;;13.25;;
43042;SDS011;28667;50.758;6.096;2023-02-05T06:18:19;26.48;;;12.30;;
43042;SDS011;28667;50.758;6.096;2023-02-05T06:20:44;26.23;;;13.10;;
43042;SDS011;28667;50.758;6.096;2023-02-05T06:23:10;27.17;;;12.27;;
43042;SDS011;28667;50.758;6.096;2023-02-05T06:25:36;25.45;;;13.00;;
43042;SDS011;28667;50.758;6.096;2023-02-05T06:28:02;27.33;;;11.85;;
43042;SDS011;28667;50.758;6.096;2023-02-05T06:30:28;24.50;;;11.38;;
43042;SDS011;28667;50.758;6.096;2023-02-05T06:32:54;23.65;;;11.10;;
43042;SDS011;28667;50.758;6.096;2023-02-05T06:35:20;23.05;;;11.05;;
43042;SDS011;28667;50.758;6.096;2023-02-05T06:37:46;23.58;;;11.43;;
43042;SDS011;28667;50.758;6.096;2023-02-05T06:40:12;18.83;;;9.70;;
43042;SDS011;28667;50.758;6.096;2023-02-05T06:42:39;17.05;;;8.38;;
43042;SDS011;28667;50.758;6.096;2023-02-05T06:45:05;22.65;;;10.73;;
43042;SDS011;28667;50.758;6.096;2023-02-05T06:47:31;15.27;;;8.75;;
43042;SDS011;28667;50.758;6.096;2023-02-05T06:49:57;17.05;;;9.00;;
43042;SDS011;28667;50.758;6.096;2023-02-05T06:52:22;20.55;;;9.80;;
43042;SDS011;28667;50.758;6.096;2023-02-05T06:54:48;20.90;;;9.07;;
43042;SDS011;28667;50.758;6.096;2023-02-05T06:57:14;26.02;;;9.50;;
43042;SDS011;28667;50.758;6.096;2023-02-05T06:59:39;21.23;;;9.73;;
43042;SDS011;28667;50.758;6.096;2023-02-05T07:02:05;18.90;;;10.07;;
43042;SDS011;28667;50.758;6.096;2023-02-05T07:04:31;22.17;;;9.77;;
43042;SDS011;28667;50.758;6.096;2023-02-05T07:06:57;25.15;;;11.25;;
43042;SDS011;28667;50.758;6.096;2023-02-05T07:09:22;24.50;;;10.30;;
43042;SDS011;28667;50.758;6.096;2023-02-05T07:11:49;25.85;;;10.40;;
43042;SDS011;28667;50.758;6.096;2023-02-05T07:14:14;24.17;;;12.23;;
43042;SDS011;28667;50.758;6.096;2023-02-05T07:16:40;23.35;;;10.68;;
43042;SDS011;28667;50.758;6.096;2023-02-05T07:19:06;22.98;;;10.50;;
43042;SDS011;28667;50.758;6.096;2023-02-05T07:21:31;23.65;;;9.80;;
43042;SDS011;28667;50.758;6.096;2023-02-05T07:23:57;21.10;;;10.15;;
43042;SDS011;28667;50.758;6.096;2023-02-05T07:26:23;26.48;;;10.43;;
43042;SDS011;28667;50.758;6.096;2023-02-05T07:28:48;21.35;;;11.35;;
43042;SDS011;28667;50.758;6.096;2023-02-05T07:31:15;22.05;;;10.43;;
43042;SDS011;28667;50.758;6.096;2023-02-05T07:33:45;26.80;;;11.00;;
43042;SDS011;28667;50.758;6.096;2023-02-05T07:36:12;18.38;;;8.85;;
43042;SDS011;28667;50.758;6.096;2023-02-05T07:38:43;17.13;;;9.13;;
43042;SDS011;28667;50.758;6.096;2023-02-05T07:41:10;16.95;;;8.77;;
43042;SDS011;28667;50.758;6.096;2023-02-05T07:43:37;15.45;;;8.38;;
43042;SDS011;28667;50.758;6.096;2023-02-05T07:46:04;18.33;;;8.40;;
43042;SDS011;28667;50.758;6.096;2023-02-05T07:48:35;19.05;;;8.55;;
43042;SDS011;28667;50.758;6.096;2023-02-05T07:51:01;25.90;;;7.78;;
43042;SDS011;28667;50.758;6.096;2023-02-05T07:53:27;12.98;;;7.05;;
43042;SDS011;28667;50.758;6.096;2023-02-05T07:55:53;10.52;;;6.13;;
43042;SDS011;28667;50.758;6.096;2023-02-05T07:58:19;16.80;;;7.38;;
43042;SDS011;28667;50.758;6.096;2023-02-05T08:00:44;17.02;;;7.53;;
43042;SDS011;28667;50.758;6.096;2023-02-05T08:03:10;15.45;;;6.38;;
43042;SDS011;28667;50.758;6.096;2023-02-05T08:05:36;10.73;;;6.68;;
43042;SDS011;28667;50.758;6.096;2023-02-05T08:08:03;9.65;;;6.22;;
43042;SDS011;28667;50.758;6.096;2023-02-05T08:10:29;10.63;;;6.35;;
43042;SDS011;28667;50.758;6.096;2023-02-05T08:12:55;9.27;;;5.82;;
43042;SDS011;28667;50.758;6.096;2023-02-05T08:15:21;9.57;;;5.45;;
43042;SDS011;28667;50.758;6.096;2023-02-05T08:17:47;12.60;;;6.07;;
43042;SDS011;28667;50.758;6.096;2023-02-05T08:20:12;14.48;;;7.13;;
43042;SDS011;28667;50.758;6.096;2023-02-05T08:22:39;17.73;;;6.32;;
43042;SDS011;28667;50.758;6.096;2023-02-05T08:25:07;8.95;;;5.10;;
43042;SDS011;28667;50.758;6.096;2023-02-05T08:27:36;9.15;;;4.78;;
43042;SDS011;28667;50.758;6.096;2023-02-05T08:30:04;8.05;;;4.50;;
43042;SDS011;28667;50.758;6.096;2023-02-05T08:32:31;5.30;;;3.60;;
43042;SDS011;28667;50.758;6.096;2023-02-05T08:34:57;11.10;;;4.95;;
43042;SDS011;28667;50.758;6.096;2023-02-05T08:37:23;6.30;;;3.42;;
43042;SDS011;28667;50.758;6.096;2023-02-05T08:39:49;9.27;;;2.70;;
43042;SDS011;28667;50.758;6.096;2023-02-05T08:42:15;2.60;;;1.00;;
43042;SDS011;28667;50.758;6.096;2023-02-05T08:44:41;3.03;;;0.65;;
43042;SDS011;28667;50.758;6.096;2023-02-05T08:47:07;1.13;;;0.65;;
43042;SDS011;28667;50.758;6.096;2023-02-05T08:49:33;1.00;;;0.52;;
43042;SDS011;28667;50.758;6.096;2023-02-05T08:51:58;1.42;;;0.40;;
43042;SDS011;28667;50.758;6.096;2023-02-05T08:54:24;0.93;;;0.32;;
43042;SDS011;28667;50.758;6.096;2023-02-05T08:56:51;0.88;;;0.40;;
43042;SDS011;28667;50.758;6.096;2023-02-05T08:59:17;6.38;;;0.60;;
43042;SDS011;28667;50.758;6.096;2023-02-05T09:01:43;0.60;;;0.30;;
43042;SDS011;28667;50.758;6.096;2023-02-05T09:04:13;8.43;;;0.60;;
43042;SDS011;28667;50.758;6.096;2023-02-05T09:06:43;0.45;;;0.38;;
43042;SDS011;28667;50.758;6.096;2023-02-05T09:09:10;0.05;;;0.05;;
43042;SDS011;28667;50.758;6.096;2023-02-05T09:11:36;0.32;;;0.20;;
43042;SDS011;28667;50.758;6.096;2023-02-05T09:14:02;6.55;;;0.60;;
43042;SDS011;28667;50.758;6.096;2023-02-05T09:16:28;3.30;;;0.25;;
43042;SDS011;28667;50.758;6.096;2023-02-05T09:18:54;2.03;;;0.43;;
43042;SDS011;28667;50.758;6.096;2023-02-05T09:21:21;2.38;;;0.45;;
43042;SDS011;28667;50.758;6.096;2023-02-05T09:23:48;1.27;;;0.20;;
43042;SDS011;28667;50.758;6.096;2023-02-05T09:26:17;3.65;;;0.30;;
43042;SDS011;28667;50.758;6.096;2023-02-05T09:28:44;2.90;;;0.50;;
43042;SDS011;28667;50.758;6.096;2023-02-05T09:31:14;0.10;;;0.10;;
43042;SDS011;28667;50.758;6.096;2023-02-05T09:33:41;2.58;;;0.17;;
43042;SDS011;28667;50.758;6.096;2023-02-05T09:36:15;3.45;;;1.00;;
43042;SDS011;28667;50.758;6.096;2023-02-05T09:38:42;0.32;;;0.32;;
43042;SDS011;28667;50.758;6.096;2023-02-05T09:48:53;1.05;;;0.22;;
43042;SDS011;28667;50.758;6.096;2023-02-05T09:52:01;4.00;;;0.32;;
43042;SDS011;28667;50.758;6.096;2023-02-05T09:54:52;5.45;;;0.40;;
43042;SDS011;28667;50.758;6.096;2023-02-05T09:57:42;4.22;;;0.73;;
43042;SDS011;28667;50.758;6.096;2023-02-05T10:03:22;4.03;;;0.32;;
43042;SDS011;28667;50.758;6.096;2023-02-05T10:14:04;4.03;;;0.77;;
43042;SDS011;28667;50.758;6.096;2023-02-05T10:22:05;9.88;;;0.60;;
43042;SDS011;28667;50.758;6.096;2023-02-05T10:27:29;4.50;;;0.88;;
43042;SDS011;28667;50.758;6.096;2023-02-05T10:32:57;5.85;;;0.70;;
43042;SDS011;28667;50.758;6.096;2023-02-05T10:36:04;5.38;;;0.50;;
43042;SDS011;28667;50.758;6.096;2023-02-05T10:38:32;4.43;;;0.75;;
43042;SDS011;28667;50.758;6.096;2023-02-05T10:41:06;6.35;;;1.13;;
43042;SDS011;28667;50.758;6.096;2023-02-05T10:44:07;3.55;;;0.50;;
43042;SDS011;28667;50.758;6.096;2023-02-05T10:46:35;12.63;;;1.55;;
43042;SDS011;28667;50.758;6.096;2023-02-05T10:49:05;2.15;;;0.40;;
43042;SDS011;28667;50.758;6.096;2023-02-05T10:51:38;2.72;;;0.95;;
43042;SDS011;28667;50.758;6.096;2023-02-05T10:54:09;8.15;;;0.88;;
43042;SDS011;28667;50.758;6.096;2023-02-05T10:56:59;8.32;;;0.68;;
43042;SDS011;28667;50.758;6.096;2023-02-05T10:59:27;5.35;;;0.65;;
43042;SDS011;28667;50.758;6.096;2023-02-05T11:01:54;5.00;;;1.00;;
43042;SDS011;28667;50.758;6.096;2023-02-05T11:05:05;1.60;;;0.60;;
43042;SDS011;28667;50.758;6.096;2023-02-05T11:07:32;6.30;;;0.90;;
43042;SDS011;28667;50.758;6.096;2023-02-05T11:12:53;1.60;;;0.52;;
43042;SDS011;28667;50.758;6.096;2023-02-05T11:15:38;1.05;;;0.60;;
43042;SDS011;28667;50.758;6.096;2023-02-05T11:18:27;7.07;;;1.00;;
43042;SDS011;28667;50.758;6.096;2023-02-05T11:20:58;10.52;;;1.70;;
43042;SDS011;28667;50.758;6.096;2023-02-05T11:23:26;11.15;;;0.98;;
43042;SDS011;28667;50.758;6.096;2023-02-05T11:26:22;5.90;;;0.80;;
43042;SDS011;28667;50.758;6.096;2023-02-05T11:28:49;3.53;;;0.60;;
43042;SDS011;28667;50.758;6.096;2023-02-05T11:31:33;8.15;;;0.85;;
43042;SDS011;28667;50.758;6.096;2023-02-05T11:36:52;8.05;;;1.13;;
43042;SDS011;28667;50.758;6.096;2023-02-05T11:42:14;6.43;;;0.70;;
43042;SDS011;28667;50.758;6.096;2023-02-05T11:44:50;2.10;;;0.85;;
43042;SDS011;28667;50.758;6.096;2023-02-05T11:47:34;5.95;;;1.30;;
43042;SDS011;28667;50.758;6.096;2023-02-05T11:50:04;8.80;;;1.65;;
43042;SDS011;28667;50.758;6.096;2023-02-05T11:52:42;15.10;;;1.15;;
43042;SDS011;28667;50.758;6.096;2023-02-05T11:55:21;8.10;;;1.50;;
43042;SDS011;28667;50.758;6.096;2023-02-05T11:57:56;3.60;;;1.13;;
43042;SDS011;28667;50.758;6.096;2023-02-05T12:00:26;6.30;;;1.15;;
43042;SDS011;28667;50.758;6.096;2023-02-05T12:03:03;5.03;;;1.17;;
43042;SDS011;28667;50.758;6.096;2023-02-05T12:06:44;7.05;;;1.30;;
43042;SDS011;28667;50.758;6.096;2023-02-05T12:08:47;5.32;;;1.42;;
43042;SDS011;28667;50.758;6.096;2023-02-05T12:14:45;8.75;;;1.00;;
43042;SDS011;28667;50.758;6.096;2023-02-05T12:22:48;5.55;;;0.98;;
43042;SDS011;28667;50.758;6.096;2023-02-05T12:25:24;7.90;;;1.38;;
43042;SDS011;28667;50.758;6.096;2023-02-05T12:30:54;13.70;;;1.48;;
43042;SDS011;28667;50.758;6.096;2023-02-05T12:36:39;10.98;;;1.30;;
43042;SDS011;28667;50.758;6.096;2023-02-05T12:42:07;12.80;;;1.52;;
43042;SDS011;28667;50.758;6.096;2023-02-05T12:44:48;5.32;;;1.20;;
43042;SDS011;28667;50.758;6.096;2023-02-05T12:55:12;10.02;;;1.13;;
43042;SDS011;28667;50.758;6.096;2023-02-05T12:57:53;20.10;;;2.45;;
43042;SDS011;28667;50.758;6.096;2023-02-05T13:00:24;7.90;;;1.13;;
43042;SDS011;28667;50.758;6.096;2023-02-05T13:10:53;6.05;;;1.67;;
43042;SDS011;28667;50.758;6.096;2023-02-05T13:13:52;7.97;;;1.83;;
43042;SDS011;28667;50.758;6.096;2023-02-05T13:16:29;8.80;;;1.35;;
43042;SDS011;28667;50.758;6.096;2023-02-05T13:19:05;8.10;;;1.58;;
43042;SDS011;28667;50.758;6.096;2023-02-05T13:21:51;8.07;;;0.80;;
43042;SDS011;28667;50.758;6.096;2023-02-05T13:24:39;9.70;;;1.33;;
43042;SDS011;28667;50.758;6.096;2023-02-05T13:27:32;8.60;;;1.08;;
43042;SDS011;28667;50.758;6.096;2023-02-05T13:30:25;7.88;;;1.63;;
43042;SDS011;28667;50.758;6.096;2023-02-05T13:33:04;7.97;;;1.17;;
43042;SDS011;28667;50.758;6.096;2023-02-05T13:35:33;6.53;;;1.38;;
43042;SDS011;28667;50.758;6.096;2023-02-05T13:48:41;4.68;;;0.77;;
43042;SDS011;28667;50.758;6.096;2023-02-05T14:00:01;2.28;;;0.60;;
43042;SDS011;28667;50.758;6.096;2023-02-05T14:02:44;7.60;;;1.15;;
43042;SDS011;28667;50.758;6.096;2023-02-05T14:05:14;4.97;;;1.27;;
43042;SDS011;28667;50.758;6.096;2023-02-05T14:07:51;7.80;;;1.48;;
43042;SDS011;28667;50.758;6.096;2023-02-05T14:10:25;5.05;;;1.30;;
43042;SDS011;28667;50.758;6.096;2023-02-05T14:15:38;4.45;;;0.57;;
43042;SDS011;28667;50.758;6.096;2023-02-05T14:18:12;6.57;;;1.10;;
43042;SDS011;28667;50.758;6.096;2023-02-05T14:23:57;9.57;;;1.10;;
43042;SDS011;28667;50.758;6.096;2023-02-05T14:37:03;8.13;;;1.30;;
43042;SDS011;28667;50.758;6.096;2023-02-05T14:39:30;6.22;;;1.65;;
43042;SDS011;28667;50.758;6.096;2023-02-05T14:41:58;4.13;;;1.25;;
43042;SDS011;28667;50.758;6.096;2023-02-05T14:44:39;12.23;;;1.05;;
43042;SDS011;28667;50.758;6.096;2023-02-05T14:50:05;9.80;;;1.08;;
43042;SDS011;28667;50.758;6.096;2023-02-05T14:52:35;8.50;;;1.27;;
43042;SDS011;28667;50.758;6.096;2023-02-05T14:55:04;9.68;;;1.85;;
43042;SDS011;28667;50.758;6.096;2023-02-05T14:57:51;11.48;;;1.13;;
43042;SDS011;28667;50.758;6.096;2023-02-05T15:00:36;4.30;;;1.38;;
43042;SDS011;28667;50.758;6.096;2023-02-05T15:10:46;6.03;;;1.10;;
43042;SDS011;28667;50.758;6.096;2023-02-05T15:13:22;3.75;;;0.85;;
43042;SDS011;28667;50.758;6.096;2023-02-05T15:18:40;11.02;;;1.52;;
43042;SDS011;28667;50.758;6.096;2023-02-05T15:22:10;13.95;;;1.25;;
43042;SDS011;28667;50.758;6.096;2023-02-05T15:24:18;5.68;;;1.48;;
43042;SDS011;28667;50.758;6.096;2023-02-05T15:27:12;8.15;;;1.52;;
43042;SDS011;28667;50.758;6.096;2023-02-05T15:29:43;9.07;;;0.80;;
43042;SDS011;28667;50.758;6.096;2023-02-05T15:42:49;5.30;;;1.20;;
43042;SDS011;28667;50.758;6.096;2023-02-05T15:45:29;5.28;;;0.80;;
43042;SDS011;28667;50.758;6.096;2023-02-05T15:50:33;6.60;;;1.25;;
43042;SDS011;28667;50.758;6.096;2023-02-05T15:53:09;7.50;;;1.65;;
43042;SDS011;28667;50.758;6.096;2023-02-05T15:55:50;1.85;;;0.77;;
43042;SDS011;28667;50.758;6.096;2023-02-05T15:58:18;9.48;;;1.25;;
43042;SDS011;28667;50.758;6.096;2023-02-05T16:00:47;5.95;;;1.35;;
43042;SDS011;28667;50.758;6.096;2023-02-05T16:03:24;8.05;;;1.17;;
43042;SDS011;28667;50.758;6.096;2023-02-05T16:05:51;4.25;;;1.13;;
43042;SDS011;28667;50.758;6.096;2023-02-05T16:08:18;8.80;;;1.10;;
43042;SDS011;28667;50.758;6.096;2023-02-05T16:10:51;5.00;;;1.33;;
43042;SDS011;28667;50.758;6.096;2023-02-05T16:13:23;13.90;;;2.50;;
43042;SDS011;28667;50.758;6.096;2023-02-05T16:18:29;6.70;;;1.27;;
43042;SDS011;28667;50.758;6.096;2023-02-05T16:21:07;16.10;;;2.00;;
43042;SDS011;28667;50.758;6.096;2023-02-05T16:24:04;9.98;;;1.55;;
43042;SDS011;28667;50.758;6.096;2023-02-05T16:26:44;2.65;;;1.05;;
43042;SDS011;28667;50.758;6.096;2023-02-05T16:29:36;8.20;;;1.23;;
43042;SDS011;28667;50.758;6.096;2023-02-05T16:32:02;12.00;;;1.55;;
43042;SDS011;28667;50.758;6.096;2023-02-05T16:34:31;8.75;;;0.98;;
43042;SDS011;28667;50.758;6.096;2023-02-05T16:36:59;4.32;;;0.60;;
43042;SDS011;28667;50.758;6.096;2023-02-05T16:39:32;6.30;;;1.30;;
43042;SDS011;28667;50.758;6.096;2023-02-05T16:42:06;3.60;;;0.85;;
43042;SDS011;28667;50.758;6.096;2023-02-05T16:44:39;12.20;;;1.60;;
43042;SDS011;28667;50.758;6.096;2023-02-05T16:49:35;10.25;;;1.05;;
43042;SDS011;28667;50.758;6.096;2023-02-05T16:52:00;6.70;;;1.60;;
43042;SDS011;28667;50.758;6.096;2023-02-05T16:54:33;8.02;;;1.30;;
43042;SDS011;28667;50.758;6.096;2023-02-05T16:57:04;12.82;;;1.10;;
43042;SDS011;28667;50.758;6.096;2023-02-05T17:02:21;7.53;;;1.33;;
43042;SDS011;28667;50.758;6.096;2023-02-05T17:04:53;4.07;;;0.90;;
43042;SDS011;28667;50.758;6.096;2023-02-05T17:07:21;12.73;;;2.08;;
43042;SDS011;28667;50.758;6.096;2023-02-05T17:09:48;10.80;;;1.90;;
43042;SDS011;28667;50.758;6.096;2023-02-05T17:14:54;10.75;;;1.95;;
43042;SDS011;28667;50.758;6.096;2023-02-05T17:17:22;10.05;;;1.45;;
43042;SDS011;28667;50.758;6.096;2023-02-05T17:20:03;8.43;;;2.03;;
43042;SDS011;28667;50.758;6.096;2023-02-05T17:22:29;11.32;;;1.90;;
43042;SDS011;28667;50.758;6.096;2023-02-05T17:24:56;5.20;;;0.90;;
43042;SDS011;28667;50.758;6.096;2023-02-05T17:27:43;11.75;;;1.77;;
43042;SDS011;28667;50.758;6.096;2023-02-05T17:30:09;6.88;;;1.60;;
43042;SDS011;28667;50.758;6.096;2023-02-05T17:32:38;13.73;;;1.63;;
43042;SDS011;28667;50.758;6.096;2023-02-05T17:35:11;7.88;;;1.17;;
43042;SDS011;28667;50.758;6.096;2023-02-05T17:37:46;13.68;;;3.47;;
43042;SDS011;28667;50.758;6.096;2023-02-05T17:40:12;7.28;;;1.35;;
43042;SDS011;28667;50.758;6.096;2023-02-05T17:42:39;7.28;;;1.60;;